sensor_id;sensor_type;location;lat;lon;timestamp;temperature;humidity
19031;DHT22;9648;51.130;13.978;2022-08-18T00:02:00;18.40;99.90
19031;DHT22;9648;51.130;13.978;2022-08-18T00:04:28;18.30;99.90
19031;DHT22;9648;51.130;13.978;2022-08-18T00:06:55;18.30;99.90
19031;DHT22;9648;51.130;13.978;2022-08-18T00:09:22;18.20;99.90
19031;DHT22;9648;51.130;13.978;2022-08-18T00:11:48;18.20;99.90
19031;DHT22;9648;51.130;13.978;2022-08-18T00:14:17;18.30;99.90
19031;DHT22;9648;51.130;13.978;2022-08-18T00:16:44;18.20;99.90
19031;DHT22;9648;51.130;13.978;2022-08-18T00:19:10;18.20;99.90
19031;DHT22;9648;51.130;13.978;2022-08-18T00:21:39;18.30;99.90
19031;DHT22;9648;51.130;13.978;2022-08-18T00:24:05;18.20;99.90
19031;DHT22;9648;51.130;13.978;2022-08-18T00:26:32;18.20;99.90
19031;DHT22;9648;51.130;13.978;2022-08-18T00:28:59;18.20;99.90
19031;DHT22;9648;51.130;13.978;2022-08-18T00:31:25;18.20;99.90
19031;DHT22;9648;51.130;13.978;2022-08-18T00:33:54;18.20;99.90
19031;DHT22;9648;51.130;13.978;2022-08-18T00:36:20;18.20;99.90
19031;DHT22;9648;51.130;13.978;2022-08-18T00:38:48;18.10;99.90
19031;DHT22;9648;51.130;13.978;2022-08-18T00:41:15;18.10;99.90
19031;DHT22;9648;51.130;13.978;2022-08-18T00:43:45;18.10;99.90
19031;DHT22;9648;51.130;13.978;2022-08-18T00:46:15;18.00;99.90
19031;DHT22;9648;51.130;13.978;2022-08-18T00:48:43;18.00;99.90
19031;DHT22;9648;51.130;13.978;2022-08-18T00:51:23;18.00;99.90
19031;DHT22;9648;51.130;13.978;2022-08-18T00:53:55;18.00;99.90
19031;DHT22;9648;51.130;13.978;2022-08-18T00:56:27;17.90;99.90
19031;DHT22;9648;51.130;13.978;2022-08-18T00:58:57;17.90;99.90
19031;DHT22;9648;51.130;13.978;2022-08-18T01:01:28;17.90;99.90
19031;DHT22;9648;51.130;13.978;2022-08-18T01:03:59;17.90;99.90
19031;DHT22;9648;51.130;13.978;2022-08-18T01:06:33;17.80;99.90
19031;DHT22;9648;51.130;13.978;2022-08-18T01:09:03;17.80;99.90
19031;DHT22;9648;51.130;13.978;2022-08-18T01:11:31;17.80;99.90
19031;DHT22;9648;51.130;13.978;2022-08-18T01:13:58;17.80;99.90
19031;DHT22;9648;51.130;13.978;2022-08-18T01:16:24;17.70;99.90
19031;DHT22;9648;51.130;13.978;2022-08-18T01:19:09;17.70;99.90
19031;DHT22;9648;51.130;13.978;2022-08-18T01:21:58;17.70;99.90
19031;DHT22;9648;51.130;13.978;2022-08-18T01:24:30;17.70;99.90
19031;DHT22;9648;51.130;13.978;2022-08-18T01:27:27;17.70;99.90
19031;DHT22;9648;51.130;13.978;2022-08-18T01:29:55;17.60;99.90
19031;DHT22;9648;51.130;13.978;2022-08-18T01:32:23;17.60;99.90
19031;DHT22;9648;51.130;13.978;2022-08-18T01:34:51;17.60;99.90
19031;DHT22;9648;51.130;13.978;2022-08-18T01:37:19;17.60;99.90
19031;DHT22;9648;51.130;13.978;2022-08-18T01:39:48;17.60;99.90
19031;DHT22;9648;51.130;13.978;2022-08-18T01:42:16;17.60;99.90
19031;DHT22;9648;51.130;13.978;2022-08-18T01:44:43;17.60;99.90
19031;DHT22;9648;51.130;13.978;2022-08-18T01:47:11;17.50;99.90
19031;DHT22;9648;51.130;13.978;2022-08-18T01:49:39;17.60;99.90
19031;DHT22;9648;51.130;13.978;2022-08-18T01:52:07;17.50;99.90
19031;DHT22;9648;51.130;13.978;2022-08-18T01:54:35;17.40;99.90
19031;DHT22;9648;51.130;13.978;2022-08-18T01:57:03;17.40;99.90
19031;DHT22;9648;51.130;13.978;2022-08-18T01:59:30;17.40;99.90
19031;DHT22;9648;51.130;13.978;2022-08-18T02:01:56;17.40;99.90
19031;DHT22;9648;51.130;13.978;2022-08-18T02:04:27;17.40;99.90
19031;DHT22;9648;51.130;13.978;2022-08-18T02:06:57;17.40;99.90
19031;DHT22;9648;51.130;13.978;2022-08-18T02:09:25;17.40;99.90
19031;DHT22;9648;51.130;13.978;2022-08-18T02:11:52;17.40;99.90
19031;DHT22;9648;51.130;13.978;2022-08-18T02:14:21;17.30;99.90
19031;DHT22;9648;51.130;13.978;2022-08-18T02:16:47;17.30;99.90
19031;DHT22;9648;51.130;13.978;2022-08-18T02:19:14;17.30;99.90
19031;DHT22;9648;51.130;13.978;2022-08-18T02:21:41;17.30;99.90
19031;DHT22;9648;51.130;13.978;2022-08-18T02:24:08;17.30;99.90
19031;DHT22;9648;51.130;13.978;2022-08-18T02:26:34;17.30;99.90
19031;DHT22;9648;51.130;13.978;2022-08-18T02:29:01;17.30;99.90
19031;DHT22;9648;51.130;13.978;2022-08-18T02:31:29;17.20;99.90
19031;DHT22;9648;51.130;13.978;2022-08-18T02:33:56;17.20;99.90
19031;DHT22;9648;51.130;13.978;2022-08-18T02:36:23;17.20;99.90
19031;DHT22;9648;51.130;13.978;2022-08-18T02:38:50;17.20;99.90
19031;DHT22;9648;51.130;13.978;2022-08-18T02:41:17;17.20;99.90
19031;DHT22;9648;51.130;13.978;2022-08-18T02:43:44;17.20;99.90
19031;DHT22;9648;51.130;13.978;2022-08-18T02:46:13;17.20;99.90
19031;DHT22;9648;51.130;13.978;2022-08-18T02:48:41;17.20;99.90
19031;DHT22;9648;51.130;13.978;2022-08-18T02:51:10;17.20;99.90
19031;DHT22;9648;51.130;13.978;2022-08-18T02:53:38;17.20;99.90
19031;DHT22;9648;51.130;13.978;2022-08-18T02:56:07;17.30;99.90
19031;DHT22;9648;51.130;13.978;2022-08-18T02:58:43;17.30;99.90
19031;DHT22;9648;51.130;13.978;2022-08-18T03:01:12;17.30;99.90
19031;DHT22;9648;51.130;13.978;2022-08-18T03:03:43;17.30;99.90
19031;DHT22;9648;51.130;13.978;2022-08-18T03:06:10;17.30;99.90
19031;DHT22;9648;51.130;13.978;2022-08-18T03:08:37;17.30;99.90
19031;DHT22;9648;51.130;13.978;2022-08-18T03:11:04;17.30;99.90
19031;DHT22;9648;51.130;13.978;2022-08-18T03:13:30;17.30;99.90
19031;DHT22;9648;51.130;13.978;2022-08-18T03:15:57;17.30;99.90
19031;DHT22;9648;51.130;13.978;2022-08-18T03:18:24;17.30;99.90
19031;DHT22;9648;51.130;13.978;2022-08-18T03:20:52;17.30;99.90
19031;DHT22;9648;51.130;13.978;2022-08-18T03:23:19;17.30;99.90
19031;DHT22;9648;51.130;13.978;2022-08-18T03:25:47;17.30;99.90
19031;DHT22;9648;51.130;13.978;2022-08-18T03:28:15;17.30;99.90
19031;DHT22;9648;51.130;13.978;2022-08-18T03:30:42;17.30;99.90
19031;DHT22;9648;51.130;13.978;2022-08-18T03:33:09;17.30;99.90
19031;DHT22;9648;51.130;13.978;2022-08-18T03:35:36;17.30;99.90
19031;DHT22;9648;51.130;13.978;2022-08-18T03:38:04;17.30;99.90
19031;DHT22;9648;51.130;13.978;2022-08-18T03:40:31;17.30;99.90
19031;DHT22;9648;51.130;13.978;2022-08-18T03:42:59;17.30;99.90
19031;DHT22;9648;51.130;13.978;2022-08-18T03:45:31;17.30;99.90
19031;DHT22;9648;51.130;13.978;2022-08-18T03:47:58;17.30;99.90
19031;DHT22;9648;51.130;13.978;2022-08-18T03:50:25;17.30;99.90
19031;DHT22;9648;51.130;13.978;2022-08-18T03:52:52;17.30;99.90
19031;DHT22;9648;51.130;13.978;2022-08-18T03:55:21;17.30;99.90
19031;DHT22;9648;51.130;13.978;2022-08-18T03:57:47;17.30;99.90
19031;DHT22;9648;51.130;13.978;2022-08-18T04:00:17;17.30;99.90
19031;DHT22;9648;51.130;13.978;2022-08-18T04:02:44;17.30;99.90
19031;DHT22;9648;51.130;13.978;2022-08-18T04:05:10;17.30;99.90
19031;DHT22;9648;51.130;13.978;2022-08-18T04:07:38;17.30;99.90
19031;DHT22;9648;51.130;13.978;2022-08-18T04:10:06;17.30;99.90
19031;DHT22;9648;51.130;13.978;2022-08-18T04:12:34;17.30;99.90
19031;DHT22;9648;51.130;13.978;2022-08-18T04:15:01;17.30;99.90
19031;DHT22;9648;51.130;13.978;2022-08-18T04:17:28;17.30;99.90
19031;DHT22;9648;51.130;13.978;2022-08-18T04:19:55;17.40;99.90
19031;DHT22;9648;51.130;13.978;2022-08-18T04:22:22;17.40;99.90
19031;DHT22;9648;51.130;13.978;2022-08-18T04:24:51;17.40;99.90
19031;DHT22;9648;51.130;13.978;2022-08-18T04:27:18;17.40;99.90
19031;DHT22;9648;51.130;13.978;2022-08-18T04:29:47;17.40;99.90
19031;DHT22;9648;51.130;13.978;2022-08-18T04:32:13;17.40;99.90
19031;DHT22;9648;51.130;13.978;2022-08-18T04:34:40;17.40;99.90
19031;DHT22;9648;51.130;13.978;2022-08-18T04:37:07;17.40;99.90
19031;DHT22;9648;51.130;13.978;2022-08-18T04:39:34;17.40;99.90
19031;DHT22;9648;51.130;13.978;2022-08-18T04:42:02;17.50;99.90
19031;DHT22;9648;51.130;13.978;2022-08-18T04:44:30;17.50;99.90
19031;DHT22;9648;51.130;13.978;2022-08-18T04:46:59;17.50;99.90
19031;DHT22;9648;51.130;13.978;2022-08-18T04:49:26;17.50;99.90
19031;DHT22;9648;51.130;13.978;2022-08-18T04:51:54;17.50;99.90
19031;DHT22;9648;51.130;13.978;2022-08-18T04:54:39;17.60;99.90
19031;DHT22;9648;51.130;13.978;2022-08-18T04:57:08;17.60;99.90
19031;DHT22;9648;51.130;13.978;2022-08-18T04:59:36;17.60;99.90
19031;DHT22;9648;51.130;13.978;2022-08-18T05:02:04;17.70;99.90
19031;DHT22;9648;51.130;13.978;2022-08-18T05:04:33;17.70;99.90
19031;DHT22;9648;51.130;13.978;2022-08-18T05:07:02;17.80;99.90
19031;DHT22;9648;51.130;13.978;2022-08-18T05:09:29;17.90;99.90
19031;DHT22;9648;51.130;13.978;2022-08-18T05:11:55;17.90;99.90
19031;DHT22;9648;51.130;13.978;2022-08-18T05:14:22;18.00;99.90
19031;DHT22;9648;51.130;13.978;2022-08-18T05:16:49;18.10;99.90
19031;DHT22;9648;51.130;13.978;2022-08-18T05:19:21;18.20;99.90
19031;DHT22;9648;51.130;13.978;2022-08-18T05:21:50;18.20;99.90
19031;DHT22;9648;51.130;13.978;2022-08-18T05:24:18;18.30;99.90
19031;DHT22;9648;51.130;13.978;2022-08-18T05:26:46;18.40;99.90
19031;DHT22;9648;51.130;13.978;2022-08-18T05:29:13;18.50;99.90
19031;DHT22;9648;51.130;13.978;2022-08-18T05:31:41;18.70;99.90
19031;DHT22;9648;51.130;13.978;2022-08-18T05:34:08;18.80;99.90
19031;DHT22;9648;51.130;13.978;2022-08-18T05:36:53;18.90;99.90
19031;DHT22;9648;51.130;13.978;2022-08-18T05:39:25;19.10;99.90
19031;DHT22;9648;51.130;13.978;2022-08-18T05:41:59;19.30;99.90
19031;DHT22;9648;51.130;13.978;2022-08-18T05:44:29;19.50;99.90
19031;DHT22;9648;51.130;13.978;2022-08-18T05:47:00;19.70;99.90
19031;DHT22;9648;51.130;13.978;2022-08-18T05:49:29;20.00;99.90
19031;DHT22;9648;51.130;13.978;2022-08-18T05:52:00;20.20;99.90
19031;DHT22;9648;51.130;13.978;2022-08-18T05:54:35;20.40;99.90
19031;DHT22;9648;51.130;13.978;2022-08-18T05:57:21;20.60;99.90
19031;DHT22;9648;51.130;13.978;2022-08-18T05:59:51;20.80;99.90
19031;DHT22;9648;51.130;13.978;2022-08-18T06:02:26;20.90;99.90
19031;DHT22;9648;51.130;13.978;2022-08-18T06:04:59;21.10;99.90
19031;DHT22;9648;51.130;13.978;2022-08-18T06:07:33;21.10;99.90
19031;DHT22;9648;51.130;13.978;2022-08-18T06:10:02;21.30;99.90
19031;DHT22;9648;51.130;13.978;2022-08-18T06:12:34;21.40;99.90
19031;DHT22;9648;51.130;13.978;2022-08-18T06:15:05;21.50;99.90
19031;DHT22;9648;51.130;13.978;2022-08-18T06:18:13;21.70;99.90
19031;DHT22;9648;51.130;13.978;2022-08-18T06:21:01;21.90;99.90
19031;DHT22;9648;51.130;13.978;2022-08-18T06:23:38;22.00;99.90
19031;DHT22;9648;51.130;13.978;2022-08-18T06:26:12;22.10;99.90
19031;DHT22;9648;51.130;13.978;2022-08-18T06:28:50;22.30;99.90
19031;DHT22;9648;51.130;13.978;2022-08-18T06:31:22;22.40;99.90
19031;DHT22;9648;51.130;13.978;2022-08-18T06:33:59;22.60;99.90
19031;DHT22;9648;51.130;13.978;2022-08-18T06:36:38;22.70;99.90
19031;DHT22;9648;51.130;13.978;2022-08-18T06:39:21;22.80;99.90
19031;DHT22;9648;51.130;13.978;2022-08-18T06:41:51;22.90;99.90
19031;DHT22;9648;51.130;13.978;2022-08-18T06:44:22;23.00;99.90
19031;DHT22;9648;51.130;13.978;2022-08-18T06:46:55;23.10;99.90
19031;DHT22;9648;51.130;13.978;2022-08-18T06:49:35;23.20;99.90
19031;DHT22;9648;51.130;13.978;2022-08-18T06:52:26;23.40;99.90
19031;DHT22;9648;51.130;13.978;2022-08-18T06:54:57;23.50;99.90
19031;DHT22;9648;51.130;13.978;2022-08-18T06:57:28;23.60;99.90
19031;DHT22;9648;51.130;13.978;2022-08-18T07:00:03;23.70;99.60
19031;DHT22;9648;51.130;13.978;2022-08-18T07:02:49;23.80;99.20
19031;DHT22;9648;51.130;13.978;2022-08-18T07:05:20;23.90;98.50
19031;DHT22;9648;51.130;13.978;2022-08-18T07:08:04;24.00;97.80
19031;DHT22;9648;51.130;13.978;2022-08-18T07:10:36;24.10;97.00
19031;DHT22;9648;51.130;13.978;2022-08-18T07:13:13;24.30;96.30
19031;DHT22;9648;51.130;13.978;2022-08-18T07:15:40;24.40;95.90
19031;DHT22;9648;51.130;13.978;2022-08-18T07:18:09;24.60;95.20
19031;DHT22;9648;51.130;13.978;2022-08-18T07:20:41;24.60;94.70
19031;DHT22;9648;51.130;13.978;2022-08-18T07:23:22;24.80;94.10
19031;DHT22;9648;51.130;13.978;2022-08-18T07:26:02;25.00;93.00
19031;DHT22;9648;51.130;13.978;2022-08-18T07:28:31;25.10;92.10
19031;DHT22;9648;51.130;13.978;2022-08-18T07:31:13;25.20;91.20
19031;DHT22;9648;51.130;13.978;2022-08-18T07:33:47;25.20;90.80
19031;DHT22;9648;51.130;13.978;2022-08-18T07:36:18;25.20;90.40
19031;DHT22;9648;51.130;13.978;2022-08-18T07:38:50;25.30;89.50
19031;DHT22;9648;51.130;13.978;2022-08-18T07:41:23;25.40;89.60
19031;DHT22;9648;51.130;13.978;2022-08-18T07:43:58;25.60;88.60
19031;DHT22;9648;51.130;13.978;2022-08-18T07:46:32;25.70;87.20
19031;DHT22;9648;51.130;13.978;2022-08-18T07:49:01;25.90;85.40
19031;DHT22;9648;51.130;13.978;2022-08-18T07:51:38;26.00;83.70
19031;DHT22;9648;51.130;13.978;2022-08-18T07:54:14;26.30;82.40
19031;DHT22;9648;51.130;13.978;2022-08-18T07:56:48;26.50;80.00
19031;DHT22;9648;51.130;13.978;2022-08-18T07:59:21;26.70;78.60
19031;DHT22;9648;51.130;13.978;2022-08-18T08:02:04;26.80;78.00
19031;DHT22;9648;51.130;13.978;2022-08-18T08:04:38;27.00;76.90
19031;DHT22;9648;51.130;13.978;2022-08-18T08:07:11;27.10;74.40
19031;DHT22;9648;51.130;13.978;2022-08-18T08:09:45;27.30;73.30
19031;DHT22;9648;51.130;13.978;2022-08-18T08:12:25;27.50;72.60
19031;DHT22;9648;51.130;13.978;2022-08-18T08:15:03;27.60;69.30
19031;DHT22;9648;51.130;13.978;2022-08-18T08:17:38;27.90;68.10
19031;DHT22;9648;51.130;13.978;2022-08-18T08:20:14;28.20;66.60
19031;DHT22;9648;51.130;13.978;2022-08-18T08:22:56;28.40;65.40
19031;DHT22;9648;51.130;13.978;2022-08-18T08:25:25;28.60;63.20
19031;DHT22;9648;51.130;13.978;2022-08-18T08:28:09;28.70;61.70
19031;DHT22;9648;51.130;13.978;2022-08-18T08:30:45;28.80;60.80
19031;DHT22;9648;51.130;13.978;2022-08-18T08:33:21;28.90;60.00
19031;DHT22;9648;51.130;13.978;2022-08-18T08:35:53;28.90;59.70
19031;DHT22;9648;51.130;13.978;2022-08-18T08:38:24;28.90;58.70
19031;DHT22;9648;51.130;13.978;2022-08-18T08:40:56;28.90;57.80
19031;DHT22;9648;51.130;13.978;2022-08-18T08:43:31;28.90;57.70
19031;DHT22;9648;51.130;13.978;2022-08-18T08:46:05;28.90;58.10
19031;DHT22;9648;51.130;13.978;2022-08-18T08:48:39;28.90;57.30
19031;DHT22;9648;51.130;13.978;2022-08-18T08:51:18;29.00;58.10
19031;DHT22;9648;51.130;13.978;2022-08-18T08:53:53;29.10;56.60
19031;DHT22;9648;51.130;13.978;2022-08-18T08:56:25;29.20;56.60
19031;DHT22;9648;51.130;13.978;2022-08-18T08:58:57;29.40;56.90
19031;DHT22;9648;51.130;13.978;2022-08-18T09:01:29;29.60;55.60
19031;DHT22;9648;51.130;13.978;2022-08-18T09:04:15;29.80;54.70
19031;DHT22;9648;51.130;13.978;2022-08-18T09:06:48;29.90;54.50
19031;DHT22;9648;51.130;13.978;2022-08-18T09:09:40;30.00;52.90
19031;DHT22;9648;51.130;13.978;2022-08-18T09:12:31;30.10;52.90
19031;DHT22;9648;51.130;13.978;2022-08-18T09:15:18;30.20;52.00
19031;DHT22;9648;51.130;13.978;2022-08-18T09:18:17;30.30;51.90
19031;DHT22;9648;51.130;13.978;2022-08-18T09:20:52;30.30;51.30
19031;DHT22;9648;51.130;13.978;2022-08-18T09:23:25;30.10;51.20
19031;DHT22;9648;51.130;13.978;2022-08-18T09:25:55;30.10;51.70
19031;DHT22;9648;51.130;13.978;2022-08-18T09:28:52;30.20;50.90
19031;DHT22;9648;51.130;13.978;2022-08-18T09:31:22;30.40;50.90
19031;DHT22;9648;51.130;13.978;2022-08-18T09:33:58;30.70;50.10
19031;DHT22;9648;51.130;13.978;2022-08-18T09:36:37;30.90;49.00
19031;DHT22;9648;51.130;13.978;2022-08-18T09:39:19;30.90;47.10
19031;DHT22;9648;51.130;13.978;2022-08-18T09:42:08;30.70;46.00
19031;DHT22;9648;51.130;13.978;2022-08-18T09:44:57;30.60;47.80
19031;DHT22;9648;51.130;13.978;2022-08-18T09:47:57;30.60;46.90
19031;DHT22;9648;51.130;13.978;2022-08-18T09:50:52;30.60;47.60
19031;DHT22;9648;51.130;13.978;2022-08-18T09:53:54;30.70;46.90
19031;DHT22;9648;51.130;13.978;2022-08-18T10:03:17;30.70;44.60
19031;DHT22;9648;51.130;13.978;2022-08-18T10:06:11;30.70;44.90
19031;DHT22;9648;51.130;13.978;2022-08-18T10:09:02;30.70;44.80
19031;DHT22;9648;51.130;13.978;2022-08-18T10:11:39;30.90;45.20
19031;DHT22;9648;51.130;13.978;2022-08-18T10:14:25;30.90;44.00
19031;DHT22;9648;51.130;13.978;2022-08-18T10:17:00;31.00;43.80
19031;DHT22;9648;51.130;13.978;2022-08-18T10:19:35;31.10;44.60
19031;DHT22;9648;51.130;13.978;2022-08-18T10:22:06;31.30;42.50
19031;DHT22;9648;51.130;13.978;2022-08-18T10:24:37;31.40;42.90
19031;DHT22;9648;51.130;13.978;2022-08-18T10:27:10;31.40;43.00
19031;DHT22;9648;51.130;13.978;2022-08-18T10:29:52;31.40;41.80
19031;DHT22;9648;51.130;13.978;2022-08-18T10:32:41;31.50;41.60
19031;DHT22;9648;51.130;13.978;2022-08-18T10:38:33;31.60;40.80
19031;DHT22;9648;51.130;13.978;2022-08-18T10:41:05;31.60;40.80
19031;DHT22;9648;51.130;13.978;2022-08-18T10:43:40;31.60;41.20
19031;DHT22;9648;51.130;13.978;2022-08-18T10:46:15;31.40;41.90
19031;DHT22;9648;51.130;13.978;2022-08-18T10:48:45;31.30;41.90
19031;DHT22;9648;51.130;13.978;2022-08-18T10:51:31;31.10;42.40
19031;DHT22;9648;51.130;13.978;2022-08-18T10:54:07;31.00;42.90
19031;DHT22;9648;51.130;13.978;2022-08-18T10:56:41;30.90;43.00
19031;DHT22;9648;51.130;13.978;2022-08-18T10:59:17;30.90;43.40
19031;DHT22;9648;51.130;13.978;2022-08-18T11:02:04;30.90;43.40
19031;DHT22;9648;51.130;13.978;2022-08-18T11:04:37;30.90;43.30
19031;DHT22;9648;51.130;13.978;2022-08-18T11:07:10;30.90;42.20
19031;DHT22;9648;51.130;13.978;2022-08-18T11:09:39;30.90;43.00
19031;DHT22;9648;51.130;13.978;2022-08-18T11:12:06;30.80;43.30
19031;DHT22;9648;51.130;13.978;2022-08-18T11:14:57;30.80;43.00
19031;DHT22;9648;51.130;13.978;2022-08-18T11:17:35;30.70;43.90
19031;DHT22;9648;51.130;13.978;2022-08-18T11:20:06;30.60;44.00
19031;DHT22;9648;51.130;13.978;2022-08-18T11:22:35;30.50;43.80
19031;DHT22;9648;51.130;13.978;2022-08-18T11:25:17;30.30;43.80
19031;DHT22;9648;51.130;13.978;2022-08-18T11:27:46;30.20;43.90
19031;DHT22;9648;51.130;13.978;2022-08-18T11:30:13;30.00;44.10
19031;DHT22;9648;51.130;13.978;2022-08-18T11:32:41;30.00;44.20
19031;DHT22;9648;51.130;13.978;2022-08-18T11:35:12;29.90;44.50
19031;DHT22;9648;51.130;13.978;2022-08-18T11:37:44;29.90;44.50
19031;DHT22;9648;51.130;13.978;2022-08-18T11:40:32;29.80;45.10
19031;DHT22;9648;51.130;13.978;2022-08-18T11:43:02;29.80;45.30
19031;DHT22;9648;51.130;13.978;2022-08-18T11:45:33;29.80;45.20
19031;DHT22;9648;51.130;13.978;2022-08-18T11:48:10;29.70;45.50
19031;DHT22;9648;51.130;13.978;2022-08-18T11:50:47;29.70;45.40
19031;DHT22;9648;51.130;13.978;2022-08-18T11:53:21;29.60;45.20
19031;DHT22;9648;51.130;13.978;2022-08-18T11:56:12;29.60;46.30
19031;DHT22;9648;51.130;13.978;2022-08-18T11:58:42;29.50;47.80
19031;DHT22;9648;51.130;13.978;2022-08-18T12:01:10;29.40;48.40
19031;DHT22;9648;51.130;13.978;2022-08-18T12:03:39;29.30;48.80
19031;DHT22;9648;51.130;13.978;2022-08-18T12:06:17;29.20;48.90
19031;DHT22;9648;51.130;13.978;2022-08-18T12:08:52;29.10;49.30
19031;DHT22;9648;51.130;13.978;2022-08-18T12:11:23;29.00;49.90
19031;DHT22;9648;51.130;13.978;2022-08-18T12:14:01;28.90;50.30
19031;DHT22;9648;51.130;13.978;2022-08-18T12:16:34;28.70;50.10
19031;DHT22;9648;51.130;13.978;2022-08-18T12:19:03;28.60;50.20
19031;DHT22;9648;51.130;13.978;2022-08-18T12:21:30;28.40;50.80
19031;DHT22;9648;51.130;13.978;2022-08-18T12:23:57;28.30;50.80
19031;DHT22;9648;51.130;13.978;2022-08-18T12:26:25;28.20;51.30
19031;DHT22;9648;51.130;13.978;2022-08-18T12:28:52;28.20;51.60
19031;DHT22;9648;51.130;13.978;2022-08-18T12:31:19;28.10;51.20
19031;DHT22;9648;51.130;13.978;2022-08-18T12:33:45;28.10;51.80
19031;DHT22;9648;51.130;13.978;2022-08-18T12:36:12;28.00;51.70
19031;DHT22;9648;51.130;13.978;2022-08-18T12:38:41;28.00;51.90
19031;DHT22;9648;51.130;13.978;2022-08-18T12:41:09;28.00;51.40
19031;DHT22;9648;51.130;13.978;2022-08-18T12:43:38;28.00;51.70
19031;DHT22;9648;51.130;13.978;2022-08-18T12:46:07;28.00;51.90
19031;DHT22;9648;51.130;13.978;2022-08-18T12:48:35;28.20;51.90
19031;DHT22;9648;51.130;13.978;2022-08-18T12:51:02;28.50;51.70
19031;DHT22;9648;51.130;13.978;2022-08-18T12:53:29;28.80;52.40
19031;DHT22;9648;51.130;13.978;2022-08-18T12:55:56;29.00;51.60
19031;DHT22;9648;51.130;13.978;2022-08-18T12:58:23;29.30;51.30
19031;DHT22;9648;51.130;13.978;2022-08-18T13:00:51;29.30;50.60
19031;DHT22;9648;51.130;13.978;2022-08-18T13:03:19;29.40;50.70
19031;DHT22;9648;51.130;13.978;2022-08-18T13:05:46;29.60;51.10
19031;DHT22;9648;51.130;13.978;2022-08-18T13:08:17;29.70;51.40
19031;DHT22;9648;51.130;13.978;2022-08-18T13:10:44;29.70;50.10
19031;DHT22;9648;51.130;13.978;2022-08-18T13:13:10;29.70;51.00
19031;DHT22;9648;51.130;13.978;2022-08-18T13:15:37;29.70;50.80
19031;DHT22;9648;51.130;13.978;2022-08-18T13:18:05;29.60;50.80
19031;DHT22;9648;51.130;13.978;2022-08-18T13:20:32;29.70;50.60
19031;DHT22;9648;51.130;13.978;2022-08-18T13:23:00;29.70;49.80
19031;DHT22;9648;51.130;13.978;2022-08-18T13:25:27;29.60;49.90
19031;DHT22;9648;51.130;13.978;2022-08-18T13:27:54;29.50;50.00
19031;DHT22;9648;51.130;13.978;2022-08-18T13:30:22;29.50;50.00
19031;DHT22;9648;51.130;13.978;2022-08-18T13:32:49;29.50;50.00
19031;DHT22;9648;51.130;13.978;2022-08-18T13:35:18;29.50;50.10
19031;DHT22;9648;51.130;13.978;2022-08-18T13:37:45;29.50;50.10
19031;DHT22;9648;51.130;13.978;2022-08-18T13:40:11;29.40;49.90
19031;DHT22;9648;51.130;13.978;2022-08-18T13:42:43;29.40;50.50
19031;DHT22;9648;51.130;13.978;2022-08-18T13:45:14;29.30;50.60
19031;DHT22;9648;51.130;13.978;2022-08-18T13:47:40;29.30;50.90
19031;DHT22;9648;51.130;13.978;2022-08-18T13:50:09;29.40;51.30
19031;DHT22;9648;51.130;13.978;2022-08-18T13:52:38;29.50;50.50
19031;DHT22;9648;51.130;13.978;2022-08-18T13:55:08;29.60;50.30
19031;DHT22;9648;51.130;13.978;2022-08-18T13:57:35;29.70;50.30
19031;DHT22;9648;51.130;13.978;2022-08-18T14:00:04;29.90;50.10
19031;DHT22;9648;51.130;13.978;2022-08-18T14:02:31;30.20;49.60
19031;DHT22;9648;51.130;13.978;2022-08-18T14:04:58;30.50;48.80
19031;DHT22;9648;51.130;13.978;2022-08-18T14:07:25;30.60;48.40
19031;DHT22;9648;51.130;13.978;2022-08-18T14:09:53;30.70;47.80
19031;DHT22;9648;51.130;13.978;2022-08-18T14:12:21;30.70;48.30
19031;DHT22;9648;51.130;13.978;2022-08-18T14:14:49;30.70;47.90
19031;DHT22;9648;51.130;13.978;2022-08-18T14:17:16;30.60;48.70
19031;DHT22;9648;51.130;13.978;2022-08-18T14:19:43;30.60;47.60
19031;DHT22;9648;51.130;13.978;2022-08-18T14:22:28;30.20;48.40
19031;DHT22;9648;51.130;13.978;2022-08-18T14:25:14;30.10;49.00
19031;DHT22;9648;51.130;13.978;2022-08-18T14:27:58;29.80;49.40
19031;DHT22;9648;51.130;13.978;2022-08-18T14:30:25;29.70;50.00
19031;DHT22;9648;51.130;13.978;2022-08-18T14:32:52;29.70;50.10
19031;DHT22;9648;51.130;13.978;2022-08-18T14:35:19;29.70;50.40
19031;DHT22;9648;51.130;13.978;2022-08-18T14:37:46;29.70;51.20
19031;DHT22;9648;51.130;13.978;2022-08-18T14:40:15;29.90;51.20
19031;DHT22;9648;51.130;13.978;2022-08-18T14:42:45;30.00;51.60
19031;DHT22;9648;51.130;13.978;2022-08-18T14:45:12;30.10;51.10
19031;DHT22;9648;51.130;13.978;2022-08-18T14:47:40;30.20;51.50
19031;DHT22;9648;51.130;13.978;2022-08-18T14:50:08;30.30;51.40
19031;DHT22;9648;51.130;13.978;2022-08-18T14:52:38;30.40;51.80
19031;DHT22;9648;51.130;13.978;2022-08-18T14:55:05;30.50;50.80
19031;DHT22;9648;51.130;13.978;2022-08-18T14:57:34;30.70;50.60
19031;DHT22;9648;51.130;13.978;2022-08-18T15:00:02;30.70;50.40
19031;DHT22;9648;51.130;13.978;2022-08-18T15:02:29;30.80;51.00
19031;DHT22;9648;51.130;13.978;2022-08-18T15:04:56;31.00;50.30
19031;DHT22;9648;51.130;13.978;2022-08-18T15:07:23;31.00;50.20
19031;DHT22;9648;51.130;13.978;2022-08-18T15:09:50;31.10;50.30
19031;DHT22;9648;51.130;13.978;2022-08-18T15:12:16;31.20;50.30
19031;DHT22;9648;51.130;13.978;2022-08-18T15:14:46;31.30;49.70
19031;DHT22;9648;51.130;13.978;2022-08-18T15:17:13;31.20;49.70
19031;DHT22;9648;51.130;13.978;2022-08-18T15:19:39;31.10;49.60
19031;DHT22;9648;51.130;13.978;2022-08-18T15:22:08;31.10;50.10
19031;DHT22;9648;51.130;13.978;2022-08-18T15:24:52;31.00;50.20
19031;DHT22;9648;51.130;13.978;2022-08-18T15:27:37;30.90;50.30
19031;DHT22;9648;51.130;13.978;2022-08-18T15:30:09;30.80;50.50
19031;DHT22;9648;51.130;13.978;2022-08-18T15:32:36;30.70;49.60
19031;DHT22;9648;51.130;13.978;2022-08-18T15:35:06;30.40;50.20
19031;DHT22;9648;51.130;13.978;2022-08-18T15:37:34;30.20;50.70
19031;DHT22;9648;51.130;13.978;2022-08-18T15:40:07;30.10;51.30
19031;DHT22;9648;51.130;13.978;2022-08-18T15:42:36;30.00;51.60
19031;DHT22;9648;51.130;13.978;2022-08-18T15:45:03;29.90;52.20
19031;DHT22;9648;51.130;13.978;2022-08-18T15:47:33;29.80;52.40
19031;DHT22;9648;51.130;13.978;2022-08-18T15:50:00;29.80;52.90
19031;DHT22;9648;51.130;13.978;2022-08-18T15:52:27;29.90;52.80
19031;DHT22;9648;51.130;13.978;2022-08-18T15:54:54;30.10;52.60
19031;DHT22;9648;51.130;13.978;2022-08-18T15:57:20;30.20;52.60
19031;DHT22;9648;51.130;13.978;2022-08-18T15:59:47;30.40;52.30
19031;DHT22;9648;51.130;13.978;2022-08-18T16:02:16;30.50;51.90
19031;DHT22;9648;51.130;13.978;2022-08-18T16:04:44;30.60;51.40
19031;DHT22;9648;51.130;13.978;2022-08-18T16:07:11;30.60;51.80
19031;DHT22;9648;51.130;13.978;2022-08-18T16:09:38;30.60;51.70